Historique des mesures à Cassis (13260), France
Quotidien Résumé Septembre 14, 2017 Unités:  Métrique    US   Métrique/US
« Précédent (Jour)
Suivant (Jour) »
Quotidien Hebdomadaire Mensuel Annuel Période au choix
  Maximum: Minimum: Moyenne:
Température: TemperatureC °C 18.2 °C 19.9 °C
Point de rosée: DewpointC °C 4.1 °C 12.1 °C
Humidité: Humidity % 33 % 60 %
Vitesse du vent: 0 km/h 0 km/h 12.1 km/h
Rafales: 0 km/h - -
Vent:- - SE
Pression: PressurehPa hPa 1009.0 hPa -
Précipitations: 0.0 mm    
Historical Graphs
 
 
Mesures pour : Septembre 14, 2017
Heure Temperature Point de rosée Pression Vent Vitesse du vent Rafales Humidité Pluie (par heure) Conditions
TemperatureC °C DewpointC °C PressurehPa hPa Calm     Humidity % HourlyPrecipMM mm SoftwareType W/m2
00:11 19.4 °C 13.8 °C 1015.5 hPa Calm   2.3 km/h 70 % 0.0 mm open2300-1.11 W/m2
01:11 19.0 °C 13.6 °C 1015.1 hPa Calm   2.3 km/h 71 % 0.0 mm open2300-1.11 W/m2
02:11 18.4 °C 13.7 °C 1014.4 hPa NNE 2.9 km/h 2.9 km/h 74 % 0.0 mm open2300-1.11 W/m2
03:11 18.4 °C 14.1 °C 1013.8 hPa Calm     76 % 0.0 mm open2300-1.11 W/m2
04:11 19.0 °C 14.7 °C 1013.1 hPa Calm     76 % 0.0 mm open2300-1.11 W/m2
05:11 18.4 °C 14.5 °C 1012.4 hPa Calm     78 % 0.0 mm open2300-1.11 W/m2
06:11 18.3 °C 14.8 °C 1012.4 hPa Calm     80 % 0.0 mm open2300-1.11 W/m2
07:11 18.2 °C 14.9 °C 1012.4 hPa Calm     81 % 0.0 mm open2300-1.11 W/m2
08:11 18.8 °C 15.8 °C 1011.7 hPa Calm     83 % 0.0 mm open2300-1.11 W/m2
09:11 19.8 °C 16.7 °C 1011.4 hPa Calm   5.1 km/h 82 % 0.0 mm open2300-1.11 W/m2
10:11 21.1 °C 17.9 °C 1012.1 hPa Calm   3.4 km/h 82 % 0.0 mm open2300-1.11 W/m2
11:11 22.6 °C 18.8 °C 1011.7 hPa SSE 12.2 km/h 12.2 km/h 79 % 0.0 mm open2300-1.11 W/m2
12:11 23.6 °C 18.9 °C 1011.7 hPa SSE 4.7 km/h 4.7 km/h 75 % 0.0 mm open2300-1.11 W/m2
14:11 25.3 °C 16.2 °C 1010.4 hPa NNW 11.6 km/h 19.6 km/h 57 % 0.0 mm open2300-1.11 W/m2
15:11 24.3 °C 16.6 °C 1010.4 hPa NW 55.7 km/h 55.7 km/h 62 % 0.0 mm open2300-1.11 W/m2
16:11 23.8 °C 13.3 °C 1010.0 hPa North 14.5 km/h 17.9 km/h 52 % 0.0 mm open2300-1.11 W/m2
17:11 24.4 °C 11.0 °C 1009.7 hPa North 21.6 km/h 42.2 km/h 43 % 0.0 mm open2300-1.11 W/m2
18:12 23.1 °C 9.1 °C 1009.7 hPa NNE 14 km/h 17.9 km/h 41 % 0.0 mm open2300-1.11 W/m2
19:11 21.6 °C 4.6 °C 1009.0 hPa NNE 32.3 km/h 45.4 km/h 33 % 0.0 mm open2300-1.11 W/m2
20:11 20.6 °C 4.1 °C 1009.7 hPa NNE 19.6 km/h 43.5 km/h 34 % 0.0 mm open2300-1.11 W/m2
21:11 20.2 °C 4.1 °C 1010.4 hPa WNW 42.6 km/h 47.3 km/h 35 % 0.0 mm open2300-1.11 W/m2
22:11 19.7 °C 4.5 °C 1010.0 hPa North 35.2 km/h 35.2 km/h 37 % 0.0 mm open2300-1.11 W/m2
23:11 19.1 °C 4.4 °C 1010.7 hPa WNW 23.8 km/h 39.4 km/h 38 % 0.0 mm open2300-1.11 W/m2
Observations météo à CASSIS
WU-History script by Weather Underground - 1 mb